Time;durP1;ratioP1;P1;durP2;ratioP2;P2;SDS_P1;SDS_P2;PMS_P1;PMS_P2;Temp;Humidity;BMP_temperature;BMP_pressure;BME280_temperature;BME280_humidity;BME280_pressure;Samples;Min_cycle;Max_cycle;Signal;HPM_P1;HPM_P2
2021/12/27 00:00:39;;;;;;;42.03;19.10;;;;;;;-2.00;100.00;99011.72;5016108;28;20084;-82
2021/12/27 00:03:05;;;;;;;40.97;19.48;;;;;;;-2.00;100.00;99016.94;5018458;28;20033;-83
2021/12/27 00:05:31;;;;;;;39.45;20.00;;;;;;;-2.00;100.00;99019.56;5017603;28;20105;-82
2021/12/27 00:07:56;;;;;;;40.05;20.00;;;;;;;-2.02;100.00;99013.47;5017313;28;20072;-83
2021/12/27 00:10:25;;;;;;;44.10;20.95;;;;;;;-2.05;100.00;99005.63;5016376;28;20030;-82
2021/12/27 00:12:51;;;;;;;43.83;20.70;;;;;;;-2.07;100.00;99005.63;5016859;28;20032;-83
2021/12/27 00:15:17;;;;;;;44.17;20.73;;;;;;;-2.09;100.00;98996.91;5018370;28;20026;-82
2021/12/27 00:17:44;;;;;;;40.20;18.65;;;;;;;-2.11;100.00;98997.78;5017832;28;20549;-83
2021/12/27 00:20:12;;;;;;;46.10;20.15;;;;;;;-2.12;100.00;98996.91;5017744;28;20089;-83
2021/12/27 00:22:38;;;;;;;40.10;20.75;;;;;;;-2.13;100.00;98996.03;5021841;28;20510;-84
2021/12/27 00:25:08;;;;;;;45.00;19.88;;;;;;;-2.10;100.00;99002.13;5022641;28;20076;-83
2021/12/27 00:27:33;;;;;;;44.92;20.42;;;;;;;-2.16;100.00;98988.16;5018975;28;20049;-82
2021/12/27 00:29:58;;;;;;;46.85;21.73;;;;;;;-2.16;100.00;98990.78;5019419;28;20053;-83
2021/12/27 00:32:24;;;;;;;45.80;20.77;;;;;;;-2.17;100.00;98983.81;5016987;28;20491;-82
2021/12/27 00:34:49;;;;;;;45.28;20.45;;;;;;;-2.17;100.00;98989.06;5016641;28;20025;-81
2021/12/27 00:37:14;;;;;;;45.67;20.98;;;;;;;-2.17;100.00;98988.16;5017318;28;20032;-82
2021/12/27 00:39:40;;;;;;;44.83;21.10;;;;;;;-2.13;100.00;98982.06;5017433;28;20022;-81
2021/12/27 00:42:05;;;;;;;48.03;21.17;;;;;;;-2.11;100.00;98976.84;5023229;28;20029;-81
2021/12/27 00:44:32;;;;;;;43.75;20.73;;;;;;;-2.08;100.00;98977.72;5023474;28;20017;-81
2021/12/27 00:47:00;;;;;;;45.47;21.88;;;;;;;-2.04;100.00;98968.13;5020064;28;20044;-82
2021/12/27 00:49:26;;;;;;;42.25;21.08;;;;;;;-2.02;100.00;98961.16;5018254;28;20032;-80
2021/12/27 00:51:52;;;;;;;45.85;20.83;;;;;;;-1.99;100.00;98961.16;5029588;23;20434;-72
2021/12/27 00:54:17;;;;;;;46.45;20.88;;;;;;;-1.98;100.00;98957.66;5014307;28;20029;-71
2021/12/27 00:56:44;;;;;;;45.50;22.45;;;;;;;-1.97;100.00;98954.16;5013969;28;20391;-71
2021/12/27 00:59:09;;;;;;;48.70;22.15;;;;;;;-1.96;100.00;98940.19;5013778;28;20032;-72
2021/12/27 01:01:34;;;;;;;42.15;21.50;;;;;;;-1.92;100.00;98946.31;5013816;28;20112;-72
2021/12/27 01:04:00;;;;;;;48.00;22.85;;;;;;;-1.86;100.00;98945.44;5014051;28;20028;-71
2021/12/27 01:06:26;;;;;;;46.60;22.10;;;;;;;-1.87;100.00;98949.81;5013467;28;20060;-71
2021/12/27 01:08:52;;;;;;;43.85;19.77;;;;;;;-1.85;100.00;98947.16;5014018;28;20026;-71
2021/12/27 01:14:11;;;;;;;46.80;20.92;;;;;;;-1.80;100.00;98945.41;5013997;28;20022;-72
2021/12/27 01:16:38;;;;;;;43.85;21.58;;;;;;;-1.80;100.00;98943.69;5013683;28;20026;-72
2021/12/27 01:19:05;;;;;;;47.90;22.70;;;;;;;-1.79;100.00;98941.94;5013451;28;20034;-71
2021/12/27 01:21:31;;;;;;;45.10;21.80;;;;;;;-1.80;100.00;98930.59;5013593;28;20033;-72
2021/12/27 01:23:56;;;;;;;45.45;21.67;;;;;;;-1.75;100.00;98937.59;5013616;28;20122;-72
2021/12/27 01:26:22;;;;;;;46.03;21.75;;;;;;;-1.74;100.00;98934.97;5013785;28;20022;-72
2021/12/27 01:28:48;;;;;;;46.03;21.75;;;;;;;-1.74;100.00;98940.19;5013670;28;20026;-72
2021/12/27 01:31:13;;;;;;;48.83;22.77;;;;;;;-1.73;100.00;98946.31;5013422;28;20049;-71
2021/12/27 01:33:39;;;;;;;42.83;20.63;;;;;;;-1.74;100.00;98940.19;5012192;28;20036;-71
2021/12/27 01:36:06;;;;;;;49.05;21.88;;;;;;;-1.73;100.00;98936.72;5013362;28;20054;-71
2021/12/27 01:38:35;;;;;;;48.17;21.70;;;;;;;-1.66;100.00;98940.19;5013332;28;20033;-72
2021/12/27 01:41:01;;;;;;;50.92;21.98;;;;;;;-1.70;100.00;98936.69;5013234;28;20022;-71
2021/12/27 01:43:29;;;;;;;49.33;21.95;;;;;;;-1.72;100.00;98938.44;5013317;28;20387;-71
2021/12/27 01:45:59;;;;;;;47.53;22.15;;;;;;;-1.74;100.00;98934.97;5013244;28;20034;-71
2021/12/27 01:48:29;;;;;;;47.33;22.63;;;;;;;-1.74;100.00;98937.56;5013232;28;20033;-71
2021/12/27 01:50:56;;;;;;;52.15;21.02;;;;;;;-1.73;100.00;98935.84;5012003;28;20406;-72
2021/12/27 01:53:24;;;;;;;50.85;21.65;;;;;;;-1.69;100.00;98932.31;5013185;28;20140;-72
2021/12/27 01:55:51;;;;;;;45.50;21.25;;;;;;;-1.70;100.00;98925.38;5013188;28;20149;-72
2021/12/27 01:58:18;;;;;;;50.50;23.45;;;;;;;-1.67;100.00;98924.50;5013236;28;20018;-71
2021/12/27 02:00:47;;;;;;;50.13;23.30;;;;;;;-1.64;100.00;98924.47;5011970;28;20030;-71
2021/12/27 02:03:18;;;;;;;45.60;22.48;;;;;;;-1.62;100.00;98927.94;5012035;28;20113;-72
2021/12/27 02:05:43;;;;;;;48.70;22.80;;;;;;;-1.59;100.00;98925.31;5013154;28;20109;-72
2021/12/27 02:08:09;;;;;;;49.38;22.40;;;;;;;-1.60;100.00;98923.59;5013322;28;20105;-72
2021/12/27 02:10:35;;;;;;;47.92;22.42;;;;;;;-1.60;100.00;98915.75;5011791;28;20034;-72
2021/12/27 02:13:00;;;;;;;50.92;23.70;;;;;;;-1.58;100.00;98925.34;5013079;28;20418;-72
2021/12/27 02:15:26;;;;;;;49.65;22.42;;;;;;;-1.58;100.00;98927.06;5013072;28;20018;-72
2021/12/27 02:17:51;;;;;;;49.05;24.00;;;;;;;-1.58;100.00;98927.06;5013043;28;20026;-72
2021/12/27 02:20:19;;;;;;;52.83;23.05;;;;;;;-1.52;100.00;98923.56;5014245;28;20451;-72
2021/12/27 02:22:46;;;;;;;47.22;22.42;;;;;;;-1.55;100.00;98924.47;5015566;28;20053;-72
2021/12/27 02:25:13;;;;;;;55.15;23.77;;;;;;;-1.53;100.00;98924.44;5016741;28;20053;-72
2021/12/27 02:27:39;;;;;;;47.92;23.05;;;;;;;-1.52;100.00;98923.56;5015402;28;20029;-72
2021/12/27 02:30:07;;;;;;;50.47;22.38;;;;;;;-1.49;100.00;98928.78;5015328;28;20050;-72
2021/12/27 02:32:47;;;;;;;50.45;23.10;;;;;;;-1.47;100.00;98927.91;5015383;28;20030;-72
2021/12/27 02:35:19;;;;;;;46.72;22.40;;;;;;;-1.48;100.00;98915.69;5016608;28;20084;-72
2021/12/27 02:37:44;;;;;;;50.55;23.63;;;;;;;-1.43;100.00;98920.03;5015244;28;20553;-72
2021/12/27 02:40:11;;;;;;;53.75;22.73;;;;;;;-1.42;100.00;98919.19;5016428;28;20029;-73
2021/12/27 02:42:56;;;;;;;49.17;22.75;;;;;;;-1.41;100.00;98915.66;5016482;28;20017;-72
2021/12/27 02:45:22;;;;;;;49.13;24.52;;;;;;;-1.40;100.00;98914.81;5016477;28;20036;-72
2021/12/27 02:47:48;;;;;;;50.45;22.98;;;;;;;-1.39;100.00;98913.94;5016546;28;20022;-72
2021/12/27 02:50:13;;;;;;;52.63;23.45;;;;;;;-1.38;100.00;98902.56;5016219;28;20030;-72
2021/12/27 02:52:38;;;;;;;49.38;22.58;;;;;;;-1.38;100.00;98899.94;5016152;28;20041;-72
2021/12/27 02:55:04;;;;;;;49.08;23.20;;;;;;;-1.38;100.00;98895.59;5016109;28;20033;-72
2021/12/27 02:57:29;;;;;;;55.38;25.65;;;;;;;-1.37;100.00;98896.47;5014855;28;20018;-72
2021/12/27 02:59:57;;;;;;;48.70;22.95;;;;;;;-1.33;100.00;98897.31;5016033;28;20032;-72
2021/12/27 03:02:23;;;;;;;55.17;24.17;;;;;;;-1.35;100.00;98892.09;5014799;28;20033;-72
2021/12/27 03:04:48;;;;;;;53.42;24.67;;;;;;;-1.36;100.00;98893.84;5014760;28;20029;-72
2021/12/27 03:07:13;;;;;;;51.20;23.65;;;;;;;-1.34;100.00;98888.59;5015898;28;20030;-72
2021/12/27 03:09:39;;;;;;;54.90;23.95;;;;;;;-1.32;100.00;98893.81;5015981;28;20026;-72
2021/12/27 03:12:04;;;;;;;54.60;24.48;;;;;;;-1.32;100.00;98888.59;5014610;28;20101;-72
2021/12/27 03:14:30;;;;;;;51.35;23.42;;;;;;;-1.33;100.00;98887.72;5015741;28;20026;-73
2021/12/27 03:16:55;;;;;;;55.88;24.02;;;;;;;-1.30;100.00;98887.72;5015864;28;20018;-73
2021/12/27 03:19:20;;;;;;;50.25;23.80;;;;;;;-1.32;100.00;98894.72;5014491;28;20022;-72
2021/12/27 03:21:46;;;;;;;53.85;24.70;;;;;;;-1.32;100.00;98894.72;5015655;28;20030;-73
2021/12/27 03:24:11;;;;;;;55.92;25.30;;;;;;;-1.31;100.00;98890.31;5015819;28;20022;-72
2021/12/27 03:26:36;;;;;;;53.40;24.42;;;;;;;-1.32;100.00;98888.59;5015514;28;20037;-72
2021/12/27 03:29:02;;;;;;;54.95;24.55;;;;;;;-1.30;100.00;98877.22;5015639;28;20021;-72
2021/12/27 03:31:27;;;;;;;54.42;25.50;;;;;;;-1.30;100.00;98879.84;5013971;28;20394;-72
2021/12/27 03:33:55;;;;;;;54.38;24.05;;;;;;;-1.30;100.00;98879.84;5015505;28;20053;-72
2021/12/27 03:36:23;;;;;;;52.83;25.30;;;;;;;-1.30;100.00;98877.22;5015734;28;20045;-72
2021/12/27 03:38:52;;;;;;;53.72;24.83;;;;;;;-1.30;100.00;98872.00;5014061;28;20516;-72
2021/12/27 03:41:22;;;;;;;60.50;26.83;;;;;;;-1.30;100.00;98872.00;5015600;28;20461;-72
2021/12/27 03:43:47;;;;;;;57.95;25.30;;;;;;;-1.30;100.00;98869.38;5014044;28;20072;-72
2021/12/27 03:46:13;;;;;;;61.80;27.38;;;;;;;-1.30;100.00;98869.38;5015556;28;20027;-72
2021/12/27 03:48:38;;;;;;;68.30;29.92;;;;;;;-1.32;100.00;98873.75;5015062;28;20026;-72
2021/12/27 03:51:05;;;;;;;67.05;29.13;;;;;;;-1.34;100.00;98870.28;5015242;28;20040;-72
2021/12/27 03:53:30;;;;;;;74.78;29.10;;;;;;;-1.35;100.00;98881.63;5015516;28;20121;-72
2021/12/27 03:55:56;;;;;;;72.45;29.92;;;;;;;-1.37;100.00;98870.28;5015086;28;20022;-72
2021/12/27 03:58:25;;;;;;;72.35;28.73;;;;;;;-1.37;100.00;98857.19;5015326;28;20049;-72
2021/12/27 04:03:21;;;;;;;80.75;30.02;;;;;;;-1.41;100.00;98847.59;5015263;28;20029;-72
2021/12/27 04:05:47;;;;;;;77.93;29.90;;;;;;;-1.40;100.00;98838.88;5014926;28;20088;-72
2021/12/27 04:08:12;;;;;;;85.50;32.90;;;;;;;-1.41;100.00;98843.22;5014785;28;20023;-72
2021/12/27 04:10:39;;;;;;;77.00;30.40;;;;;;;-1.39;100.00;98840.63;5014736;28;20026;-72
2021/12/27 04:13:06;;;;;;;75.22;30.50;;;;;;;-1.39;100.00;98835.38;5014786;28;20022;-72
2021/12/27 04:15:33;;;;;;;74.47;31.50;;;;;;;-1.38;100.00;98842.34;5013508;28;20071;-72
2021/12/27 04:17:58;;;;;;;75.90;30.80;;;;;;;-1.39;100.00;98841.47;5014654;28;20053;-72
2021/12/27 04:20:24;;;;;;;72.85;30.70;;;;;;;-1.39;100.00;98830.13;5013596;28;20068;-73
2021/12/27 04:22:50;;;;;;;76.20;29.63;;;;;;;-1.37;100.00;98817.91;5014839;28;20451;-72
2021/12/27 04:25:16;;;;;;;72.95;29.90;;;;;;;-1.39;100.00;98825.75;5014499;28;20148;-72
2021/12/27 04:27:42;;;;;;;72.15;29.88;;;;;;;-1.38;100.00;98835.34;5013122;28;20022;-72
2021/12/27 04:30:08;;;;;;;71.28;30.23;;;;;;;-1.36;100.00;98836.22;5014382;28;20072;-72
2021/12/27 04:32:33;;;;;;;65.47;28.67;;;;;;;-1.36;100.00;98841.44;5014305;28;20029;-72
2021/12/27 04:34:59;;;;;;;77.38;30.98;;;;;;;-1.34;100.00;98841.47;5014352;28;20124;-73
2021/12/27 04:37:24;;;;;;;65.18;29.02;;;;;;;-1.35;100.00;98835.34;5014315;28;20018;-72
2021/12/27 04:39:49;;;;;;;73.30;30.25;;;;;;;-1.32;100.00;98841.44;5014197;28;20022;-72
2021/12/27 04:42:17;;;;;;;71.40;29.05;;;;;;;-1.33;100.00;98837.94;5013813;28;20125;-72
2021/12/27 04:44:42;;;;;;;65.65;27.73;;;;;;;-1.31;100.00;98832.69;5014433;28;20394;-72
2021/12/27 04:47:08;;;;;;;66.10;28.60;;;;;;;-1.33;100.00;98832.72;5014050;28;20028;-72
2021/12/27 04:49:34;;;;;;;58.42;26.67;;;;;;;-1.30;100.00;98822.22;5014041;28;20029;-72
2021/12/27 04:51:59;;;;;;;62.08;26.85;;;;;;;-1.30;100.00;98821.34;5014152;28;20029;-72
2021/12/27 04:54:24;;;;;;;65.45;27.77;;;;;;;-1.30;100.00;98822.22;5014231;28;20403;-72
2021/12/27 04:56:49;;;;;;;63.95;27.45;;;;;;;-1.30;100.00;98818.72;5013985;28;20024;-73
2021/12/27 04:59:15;;;;;;;59.22;26.23;;;;;;;-1.29;100.00;98821.34;5012646;28;20487;-72
2021/12/27 05:01:40;;;;;;;59.83;27.83;;;;;;;-1.27;100.00;98819.59;5014180;28;20390;-72
2021/12/27 05:04:05;;;;;;;59.80;27.75;;;;;;;-1.25;100.00;98814.34;5013847;28;20108;-71
2021/12/27 05:06:31;;;;;;;58.90;25.35;;;;;;;-1.26;100.00;98816.09;5012476;28;20018;-72
2021/12/27 05:08:56;;;;;;;61.83;25.92;;;;;;;-1.24;100.00;98811.69;5013706;28;20025;-72
2021/12/27 05:11:22;;;;;;;61.10;26.83;;;;;;;-1.22;100.00;98810.84;5013740;28;20029;-72
2021/12/27 05:13:47;;;;;;;57.80;26.27;;;;;;;-1.21;100.00;98813.44;5013255;28;20061;-72
2021/12/27 05:16:12;;;;;;;57.13;26.15;;;;;;;-1.20;100.00;98809.06;5013787;28;20101;-72
2021/12/27 05:18:38;;;;;;;59.50;27.05;;;;;;;-1.21;100.00;98802.94;5012456;28;20390;-71
2021/12/27 05:21:03;;;;;;;52.47;23.90;;;;;;;-1.19;100.00;98802.97;5013743;28;20048;-72
2021/12/27 05:23:30;;;;;;;59.03;24.80;;;;;;;-1.18;100.00;98791.59;5013666;28;20104;-72
2021/12/27 05:25:56;;;;;;;59.70;26.70;;;;;;;-1.17;100.00;98790.72;5013520;28;20467;-72
2021/12/27 05:28:21;;;;;;;56.65;24.98;;;;;;;-1.18;100.00;98788.97;5013439;28;20113;-71
2021/12/27 05:30:48;;;;;;;55.63;24.63;;;;;;;-1.19;100.00;98788.13;5013516;28;20049;-72
2021/12/27 05:33:15;;;;;;;61.67;27.05;;;;;;;-1.17;100.00;98793.34;5012197;28;20036;-72
2021/12/27 05:35:40;;;;;;;55.92;26.23;;;;;;;-1.15;100.00;98802.06;5013383;28;20061;-72
2021/12/27 05:38:06;;;;;;;56.63;26.52;;;;;;;-1.16;100.00;98784.63;5013431;28;20160;-72
2021/12/27 05:40:31;;;;;;;59.00;27.20;;;;;;;-1.15;100.00;98794.19;5013333;28;20509;-73
2021/12/27 05:42:57;;;;;;;55.83;26.75;;;;;;;-1.15;100.00;98786.34;5013652;28;20026;-72
2021/12/27 05:45:22;;;;;;;54.83;26.70;;;;;;;-1.14;100.00;98794.22;5013569;28;20022;-72
2021/12/27 05:47:48;;;;;;;58.45;27.48;;;;;;;-1.14;100.00;98788.97;5011970;28;20025;-72
2021/12/27 05:50:15;;;;;;;57.47;26.73;;;;;;;-1.14;100.00;98793.31;5013303;28;20022;-72
2021/12/27 05:52:40;;;;;;;59.67;26.80;;;;;;;-1.14;100.00;98785.47;5013323;28;20040;-72
2021/12/27 05:55:08;;;;;;;54.22;25.80;;;;;;;-1.13;100.00;98784.56;5017384;28;20034;-72
2021/12/27 05:57:34;;;;;;;57.17;26.27;;;;;;;-1.13;100.00;98779.34;5017847;28;20490;-72
2021/12/27 06:00:00;;;;;;;56.85;26.95;;;;;;;-1.12;100.00;98775.84;5017157;28;20524;-73
2021/12/27 06:02:25;;;;;;;52.65;25.92;;;;;;;-1.11;100.00;98772.34;5017220;28;20017;-72
2021/12/27 06:04:50;;;;;;;57.38;26.52;;;;;;;-1.11;100.00;98761.88;5017193;28;20024;-72
2021/12/27 06:07:16;;;;;;;57.70;27.08;;;;;;;-1.12;100.00;98760.13;5017167;28;20084;-72
2021/12/27 06:09:42;;;;;;;54.42;26.55;;;;;;;-1.10;100.00;98760.09;5015733;28;20058;-72
2021/12/27 06:12:07;;;;;;;61.30;26.70;;;;;;;-1.10;100.00;98760.97;5015774;28;20038;-72
2021/12/27 06:14:32;;;;;;;54.10;25.42;;;;;;;-1.08;100.00;98756.59;5016951;28;20022;-72
2021/12/27 06:16:58;;;;;;;55.78;26.55;;;;;;;-1.09;100.00;98770.59;5017192;28;20024;-72
2021/12/27 06:19:23;;;;;;;60.05;24.85;;;;;;;-1.07;100.00;98766.22;5016828;28;20028;-72
2021/12/27 06:21:49;;;;;;;55.92;26.60;;;;;;;-1.06;100.00;98767.97;5017144;28;20022;-72
2021/12/27 06:24:14;;;;;;;56.72;26.17;;;;;;;-1.05;100.00;98772.28;5016802;28;20025;-72
2021/12/27 06:26:39;;;;;;;52.53;24.42;;;;;;;-1.02;100.00;98771.41;5016704;28;20407;-72
2021/12/27 06:29:05;;;;;;;55.90;25.00;;;;;;;-1.04;100.00;98768.81;5017527;28;20032;-73
2021/12/27 06:31:30;;;;;;;55.95;25.27;;;;;;;-0.99;100.00;98788.84;5015710;28;20105;-72
2021/12/27 06:33:55;;;;;;;55.60;25.90;;;;;;;-1.02;100.00;98780.13;5016665;28;20086;-72
2021/12/27 06:36:21;;;;;;;54.55;25.67;;;;;;;-1.00;100.00;98779.28;5016581;28;20087;-73
2021/12/27 06:38:46;;;;;;;54.78;25.73;;;;;;;-1.02;100.00;98779.25;5015195;28;20033;-73
2021/12/27 06:41:11;;;;;;;54.22;24.55;;;;;;;-0.98;100.00;98777.50;5016990;28;20026;-73
2021/12/27 06:43:37;;;;;;;54.85;24.20;;;;;;;-0.98;100.00;98770.50;5016994;28;20026;-73
2021/12/27 06:46:02;;;;;;;59.08;26.90;;;;;;;-0.98;100.00;98769.66;5016374;28;20072;-72
2021/12/27 06:48:28;;;;;;;56.05;25.67;;;;;;;-0.98;100.00;98769.66;5015022;28;20033;-72
2021/12/27 06:50:53;;;;;;;53.78;24.73;;;;;;;-0.97;100.00;98768.75;5016227;28;20030;-73
2021/12/27 06:53:19;;;;;;;62.10;26.35;;;;;;;-0.97;100.00;98769.63;5028198;22;20056;-75
2021/12/27 06:55:46;;;;;;;57.05;27.80;;;;;;;-0.96;100.00;98757.41;5015916;28;20022;-74
2021/12/27 06:58:12;;;;;;;57.28;26.67;;;;;;;-0.96;100.00;98765.25;5015836;28;20026;-74
2021/12/27 07:00:37;;;;;;;58.20;27.60;;;;;;;-0.97;100.00;98758.25;5031016;28;20026;-74
2021/12/27 07:03:03;;;;;;;57.65;26.17;;;;;;;-0.95;100.00;98769.59;5015998;28;20505;-74
2021/12/27 07:05:28;;;;;;;56.50;27.08;;;;;;;-0.96;100.00;98768.75;5015549;28;20030;-74
2021/12/27 07:07:54;;;;;;;57.72;26.38;;;;;;;-0.94;100.00;98763.50;5015710;28;20029;-75
2021/12/27 07:10:19;;;;;;;55.30;26.10;;;;;;;-0.95;100.00;98769.59;5015540;28;20387;-74
2021/12/27 07:12:45;;;;;;;59.58;26.73;;;;;;;-0.94;100.00;98768.72;5015700;28;20034;-75
2021/12/27 07:15:11;;;;;;;54.72;25.80;;;;;;;-0.96;100.00;98758.28;5014291;28;20061;-74
2021/12/27 07:17:37;;;;;;;61.47;29.20;;;;;;;-0.96;100.00;98760.00;5015646;28;20022;-74
2021/12/27 07:20:03;;;;;;;61.08;27.60;;;;;;;-0.96;100.00;98750.41;5015589;28;20026;-74
2021/12/27 07:22:29;;;;;;;56.97;26.55;;;;;;;-0.94;100.00;98750.38;5015923;28;20036;-74
2021/12/27 07:24:54;;;;;;;64.80;28.95;;;;;;;-0.96;100.00;98757.41;5030767;28;20112;-74
2021/12/27 07:27:19;;;;;;;59.35;26.17;;;;;;;-0.95;100.00;98751.25;5015247;28;20471;-74
2021/12/27 07:29:44;;;;;;;61.97;28.20;;;;;;;-0.95;100.00;98761.75;5015207;28;20087;-75
2021/12/27 07:32:10;;;;;;;63.10;29.58;;;;;;;-0.94;100.00;98768.72;5013907;28;20076;-74
2021/12/27 07:34:35;;;;;;;69.60;28.55;;;;;;;-0.96;100.00;98775.75;5015064;28;20454;-75
2021/12/27 07:37:00;;;;;;;61.55;28.98;;;;;;;-0.95;100.00;98774.84;5015096;28;20456;-75
2021/12/27 07:39:26;;;;;;;67.30;27.17;;;;;;;-0.94;100.00;98767.00;5015016;28;20026;-75
2021/12/27 07:41:52;;;;;;;64.57;28.60;;;;;;;-0.92;100.00;98766.97;5015133;28;20025;-75
2021/12/27 07:44:18;;;;;;;61.00;28.67;;;;;;;-0.93;100.00;98765.25;5014951;28;20087;-74
2021/12/27 07:46:45;;;;;;;66.60;28.85;;;;;;;-0.91;100.00;98768.72;5015115;28;20450;-75
2021/12/27 07:49:13;;;;;;;72.05;30.50;;;;;;;-0.91;100.00;98763.47;5013703;28;20038;-75
2021/12/27 07:51:38;;;;;;;67.65;30.40;;;;;;;-0.91;100.00;98758.22;5014827;28;20112;-76
2021/12/27 07:54:05;;;;;;;76.57;30.50;;;;;;;-0.90;100.00;98754.72;5015091;28;20122;-76
2021/12/27 07:56:31;;;;;;;71.70;29.65;;;;;;;-0.88;100.00;98758.22;5015165;28;20026;-76
2021/12/27 07:58:56;;;;;;;69.18;30.15;;;;;;;-0.88;100.00;98747.72;5014797;28;20026;-77
2021/12/27 08:01:22;;;;;;;72.35;30.10;;;;;;;-0.84;100.00;98753.81;5013293;28;20394;-76
2021/12/27 08:03:47;;;;;;;69.85;29.15;;;;;;;-0.85;100.00;98758.16;5013202;28;20394;-77
2021/12/27 08:06:12;;;;;;;69.13;29.88;;;;;;;-0.83;100.00;98763.41;5029625;28;20021;-76
2021/12/27 08:08:38;;;;;;;67.32;28.10;;;;;;;-0.84;100.00;98767.78;5014599;28;20430;-77
2021/12/27 08:11:03;;;;;;;71.22;29.88;;;;;;;-0.82;100.00;98768.63;5014356;28;20060;-77
2021/12/27 08:13:28;;;;;;;67.10;29.48;;;;;;;-0.81;100.00;98759.91;5014494;28;20061;-77
2021/12/27 08:15:54;;;;;;;73.75;29.13;;;;;;;-0.80;100.00;98756.38;5014248;28;20088;-77
2021/12/27 08:18:20;;;;;;;59.50;28.02;;;;;;;-0.79;100.00;98762.50;5013350;28;20022;-77
2021/12/27 08:20:45;;;;;;;69.30;28.65;;;;;;;-0.76;100.00;98753.75;5014312;28;20026;-76
2021/12/27 08:23:10;;;;;;;63.60;28.40;;;;;;;-0.77;100.00;98758.09;5014165;28;20029;-76
2021/12/27 08:25:36;;;;;;;66.78;28.90;;;;;;;-0.73;100.00;98751.09;5014003;28;20029;-77
2021/12/27 08:28:01;;;;;;;71.03;29.98;;;;;;;-0.73;100.00;98757.22;5013899;28;20026;-77
2021/12/27 08:30:27;;;;;;;70.72;29.25;;;;;;;-0.72;100.00;98747.59;5014069;28;20105;-77
2021/12/27 08:32:54;;;;;;;71.78;29.27;;;;;;;-0.69;100.00;98750.19;5014139;28;20028;-76
2021/12/27 08:35:20;;;;;;;68.00;29.00;;;;;;;-0.69;100.00;98755.41;5014601;28;20394;-77
2021/12/27 08:37:45;;;;;;;66.97;29.83;;;;;;;-0.68;100.00;98751.94;5014123;28;20476;-77
2021/12/27 08:40:12;;;;;;;71.32;30.27;;;;;;;-0.68;100.00;98752.81;5013764;28;20022;-77
2021/12/27 08:42:39;;;;;;;70.90;29.67;;;;;;;-0.66;100.00;98747.53;5013722;28;20049;-77
2021/12/27 08:45:04;;;;;;;70.40;29.95;;;;;;;-0.63;100.00;98751.88;5012335;28;20030;-77
2021/12/27 08:47:30;;;;;;;68.00;31.00;;;;;;;-0.62;100.00;98741.38;5014321;28;20034;-77
2021/12/27 08:49:56;;;;;;;68.55;29.10;;;;;;;-0.60;100.00;98747.50;5013645;28;20494;-77
2021/12/27 08:52:21;;;;;;;66.55;28.90;;;;;;;-0.54;100.00;98753.56;5013692;28;20403;-77
2021/12/27 08:54:47;;;;;;;67.95;28.77;;;;;;;-0.53;100.00;98755.28;5013816;28;20101;-77
2021/12/27 08:57:12;;;;;;;69.75;29.60;;;;;;;-0.52;100.00;98755.28;5013436;28;20026;-76
2021/12/27 08:59:38;;;;;;;71.75;28.38;;;;;;;-0.50;100.00;98760.50;5012086;28;20038;-77
2021/12/27 09:02:04;;;;;;;67.10;28.85;;;;;;;-0.47;100.00;98763.97;5013583;28;20030;-76
2021/12/27 09:04:30;;;;;;;69.25;29.15;;;;;;;-0.45;100.00;98766.59;5013387;28;20026;-76
2021/12/27 09:06:55;;;;;;;60.35;26.60;;;;;;;-0.45;100.00;98763.97;5013271;28;20026;-76
2021/12/27 09:09:21;;;;;;;66.88;26.58;;;;;;;-0.43;100.00;98763.94;5013234;28;20021;-77
2021/12/27 09:11:47;;;;;;;62.72;27.77;;;;;;;-0.40;100.00;98756.03;5013316;28;20045;-76
2021/12/27 09:14:14;;;;;;;66.53;26.92;;;;;;;-0.36;100.00;98760.38;5013525;28;20117;-76
2021/12/27 09:16:39;;;;;;;60.28;26.08;;;;;;;-0.37;100.00;98759.50;5013176;28;20083;-77
2021/12/27 09:19:05;;;;;;;60.58;26.42;;;;;;;-0.32;100.00;98761.22;5029743;28;20029;-78
2021/12/27 09:21:30;;;;;;;61.67;27.02;;;;;;;-0.29;100.00;98758.56;5028839;28;20029;-77
2021/12/27 09:23:56;;;;;;;60.28;25.70;;;;;;;-0.26;100.00;98761.16;5013276;28;20505;-78
2021/12/27 09:26:21;;;;;;;61.58;26.98;;;;;;;-0.25;100.00;98774.25;5011893;28;20029;-77
2021/12/27 09:28:46;;;;;;;60.45;25.60;;;;;;;-0.21;100.00;98769.84;5012672;28;20033;-78
2021/12/27 09:31:11;;;;;;;56.22;24.13;;;;;;;-0.21;100.00;98768.97;5013090;28;20390;-78
2021/12/27 09:33:37;;;;;;;55.63;25.33;;;;;;;-0.20;100.00;98762.81;5028600;28;20036;-78
2021/12/27 09:36:02;;;;;;;54.03;23.88;;;;;;;-0.18;100.00;98758.47;5013560;28;20056;-77
2021/12/27 09:38:29;;;;;;;53.13;24.65;;;;;;;-0.17;100.00;98761.06;5013169;28;20116;-77
2021/12/27 09:40:55;;;;;;;53.72;24.83;;;;;;;-0.13;100.00;98764.53;5012903;28;20479;-77
2021/12/27 09:43:20;;;;;;;46.10;22.88;;;;;;;-0.10;100.00;98763.63;5028161;28;20026;-78
2021/12/27 09:45:46;;;;;;;57.17;24.17;;;;;;;-0.07;100.00;98750.44;5028545;28;20022;-77
2021/12/27 09:48:13;;;;;;;52.20;23.05;;;;;;;-0.02;100.00;98748.63;5013012;28;20049;-77
2021/12/27 09:50:44;;;;;;;49.55;23.50;;;;;;;0.02;100.00;98745.09;5028215;28;20125;-77
2021/12/27 09:53:09;;;;;;;48.75;23.42;;;;;;;0.03;100.00;98736.34;5011433;28;20025;-78
2021/12/27 09:55:35;;;;;;;50.33;23.55;;;;;;;0.07;100.00;98731.94;5012008;28;20433;-78
2021/12/27 09:58:01;;;;;;;53.25;22.83;;;;;;;0.09;100.00;98736.28;5011688;28;20475;-77
2021/12/27 10:00:27;;;;;;;49.60;22.58;;;;;;;0.10;100.00;98727.50;5012802;28;20018;-78
2021/12/27 10:02:56;;;;;;;48.70;21.50;;;;;;;0.17;100.00;98728.31;5013997;28;20022;-78
2021/12/27 10:05:24;;;;;;;51.50;22.58;;;;;;;0.15;100.00;98723.97;5014328;28;20026;-78
2021/12/27 10:07:50;;;;;;;47.47;22.63;;;;;;;0.17;100.00;98723.06;5030593;28;20026;-79
2021/12/27 10:10:16;;;;;;;47.78;22.23;;;;;;;0.18;100.00;98716.03;5033570;28;20029;-80
2021/12/27 10:12:41;;;;;;;49.22;22.63;;;;;;;0.20;100.00;98716.88;5020405;28;20500;-80
2021/12/27 10:15:10;;;;;;;47.47;21.92;;;;;;;0.23;100.00;98706.34;5023120;28;20514;-79
2021/12/27 10:17:37;;;;;;;47.03;21.73;;;;;;;0.29;100.00;98700.13;5021081;28;20037;-80
2021/12/27 10:20:29;;;;;;;45.28;20.85;;;;;;;0.32;100.00;98695.72;5020095;28;20033;-79
2021/12/27 10:22:55;;;;;;;46.47;21.52;;;;;;;0.38;100.00;98699.16;5015648;28;20034;-79
2021/12/27 10:25:28;;;;;;;47.75;21.48;;;;;;;0.42;100.00;98695.56;5017162;28;20033;-78
2021/12/27 10:27:57;;;;;;;41.53;20.83;;;;;;;0.44;100.00;98709.56;5013916;28;20050;-77
2021/12/27 10:30:26;;;;;;;49.55;21.92;;;;;;;0.46;100.00;98697.28;5013335;28;20394;-78
2021/12/27 10:33:12;;;;;;;44.20;21.42;;;;;;;0.48;100.00;98695.50;5014067;28;20025;-78
2021/12/27 10:35:45;;;;;;;43.25;20.60;;;;;;;0.52;100.00;98696.31;5013645;28;20026;-77
2021/12/27 10:38:33;;;;;;;46.35;20.55;;;;;;;0.57;100.00;98688.38;5015641;28;20048;-78
2021/12/27 10:41:01;;;;;;;42.88;21.50;;;;;;;0.63;100.00;98693.53;5017464;28;20080;-78
2021/12/27 10:43:42;;;;;;;39.42;19.30;;;;;;;0.67;100.00;98690.00;5019216;28;20506;-78
2021/12/27 10:46:12;;;;;;;38.45;18.60;;;;;;;0.70;100.00;98686.41;5017498;28;20076;-78
2021/12/27 10:48:44;;;;;;;38.88;19.75;;;;;;;0.72;100.00;98692.53;5017543;28;20026;-77
2021/12/27 10:51:10;;;;;;;40.70;19.60;;;;;;;0.72;100.00;98688.13;5015700;28;20033;-77
2021/12/27 10:53:43;;;;;;;40.33;19.25;;;;;;;0.74;100.00;98691.63;5016293;28;20030;-77
2021/12/27 10:56:08;;;;;;;39.13;19.13;;;;;;;0.76;100.00;98689.84;5016602;28;20025;-77
2021/12/27 10:58:38;;;;;;;37.00;18.08;;;;;;;0.77;100.00;98681.03;5031458;28;20026;-77
2021/12/27 11:01:09;;;;;;;38.47;19.60;;;;;;;0.83;100.00;98668.69;5016612;28;20022;-77
2021/12/27 11:03:37;;;;;;;37.53;18.67;;;;;;;0.84;100.00;98673.06;5016423;28;20030;-77
2021/12/27 11:06:04;;;;;;;37.97;19.00;;;;;;;0.90;100.00;98665.09;5015191;28;20025;-77
2021/12/27 11:08:32;;;;;;;34.60;18.15;;;;;;;0.93;100.00;98665.03;5032117;28;20030;-77
2021/12/27 11:10:58;;;;;;;37.83;18.00;;;;;;;0.97;100.00;98666.72;5031312;28;20029;-77